createdAt,value
2019-02-19T00:01:07.616Z,97.43
2019-02-19T00:03:36.466Z,92.50
2019-02-19T00:06:08.838Z,100.43
2019-02-19T00:08:40.272Z,92.07
2019-02-19T00:11:11.356Z,91.17
2019-02-19T00:13:44.330Z,99.70
2019-02-19T00:16:16.829Z,95.73
2019-02-19T00:18:47.910Z,84.80
2019-02-19T00:21:20.428Z,96.67
2019-02-19T00:23:52.496Z,98.00
2019-02-19T00:26:26.087Z,95.60
2019-02-19T00:28:57.605Z,95.87
2019-02-19T00:31:28.725Z,89.00
2019-02-19T00:33:59.944Z,86.50
2019-02-19T00:36:31.065Z,92.87
2019-02-19T00:39:02.138Z,84.47
2019-02-19T00:41:35.129Z,92.63
2019-02-19T00:44:06.943Z,84.00
2019-02-19T00:46:40.691Z,118.37
2019-02-19T00:49:14.588Z,120.70
2019-02-19T00:51:48.017Z,118.03
2019-02-19T00:54:19.216Z,116.07
2019-02-19T00:56:52.254Z,107.67
2019-02-19T00:59:25.558Z,105.43
2019-02-19T01:01:57.754Z,118.33
2019-02-19T01:04:31.143Z,108.63
2019-02-19T01:07:02.338Z,98.03
2019-02-19T01:09:35.762Z,104.27
2019-02-19T01:12:07.793Z,113.60
2019-02-19T01:14:39.593Z,101.97
2019-02-19T01:17:11.961Z,104.90
2019-02-19T01:19:46.730Z,107.20
2019-02-19T01:22:20.254Z,112.67
2019-02-19T01:24:51.429Z,105.80
2019-02-19T01:27:23.003Z,110.87
2019-02-19T01:29:54.084Z,115.27
2019-02-19T01:32:25.167Z,110.07
2019-02-19T01:34:56.879Z,113.77
2019-02-19T01:37:29.727Z,112.53
2019-02-19T01:40:01.048Z,109.47
2019-02-19T01:42:32.129Z,117.43
2019-02-19T01:45:03.267Z,112.67
2019-02-19T01:47:35.966Z,62.93
2019-02-19T01:50:09.438Z,66.53
2019-02-19T01:52:41.366Z,65.83
2019-02-19T01:55:12.988Z,67.80
2019-02-19T01:57:45.713Z,82.00
2019-02-19T02:00:16.894Z,76.07
2019-02-19T02:02:48.686Z,66.87
2019-02-19T02:05:23.698Z,73.40
2019-02-19T02:07:56.187Z,73.47
2019-02-19T02:10:28.870Z,71.53
2019-02-19T02:12:59.941Z,69.17
2019-02-19T02:15:32.302Z,75.80
2019-02-19T02:18:03.362Z,69.23
2019-02-19T02:20:35.507Z,74.57
2019-02-19T02:23:08.732Z,76.70
2019-02-19T02:25:40.744Z,70.13
2019-02-19T02:28:12.069Z,77.67
2019-02-19T02:30:46.384Z,68.53
2019-02-19T02:33:17.479Z,63.37
2019-02-19T02:35:49.323Z,69.13
2019-02-19T02:38:21.487Z,69.13
2019-02-19T02:40:55.046Z,68.53
2019-02-19T02:43:26.984Z,64.70
2019-02-19T02:45:58.382Z,68.83
2019-02-19T02:48:30.262Z,67.40
2019-02-19T02:51:01.432Z,67.33
2019-02-19T02:53:33.697Z,65.40
2019-02-19T02:56:05.796Z,67.30
2019-02-19T02:58:38.355Z,74.17
2019-02-19T03:01:10.306Z,66.80
2019-02-19T03:03:42.212Z,65.17
2019-02-19T03:06:22.162Z,59.23
2019-02-19T03:08:54.256Z,60.83
2019-02-19T03:11:26.209Z,61.50
2019-02-19T03:13:59.690Z,55.20
2019-02-19T03:16:31.060Z,54.53
2019-02-19T03:19:03.554Z,57.10
2019-02-19T03:21:35.944Z,60.83
2019-02-19T03:24:07.491Z,60.23
2019-02-19T03:26:38.827Z,63.20
2019-02-19T03:29:10.557Z,64.40
2019-02-19T03:31:43.547Z,71.13
2019-02-19T03:34:15.128Z,62.57
2019-02-19T03:36:46.207Z,66.80
2019-02-19T03:39:19.204Z,66.57
2019-02-19T03:41:52.201Z,59.37
2019-02-19T03:44:23.286Z,61.90
2019-02-19T03:46:54.374Z,63.03
2019-02-19T03:49:25.786Z,60.77
2019-02-19T03:51:57.323Z,61.93
2019-02-19T03:54:28.434Z,57.70
2019-02-19T03:56:59.911Z,62.23
2019-02-19T03:59:32.045Z,56.17
2019-02-19T04:02:04.177Z,55.27
2019-02-19T04:04:37.280Z,70.17
2019-02-19T04:07:11.181Z,75.33
2019-02-19T04:09:41.737Z,88.10
2019-02-19T04:12:15.543Z,79.50
2019-02-19T04:14:48.619Z,101.50
2019-02-19T04:17:20.417Z,93.33
2019-02-19T04:19:51.504Z,89.30
2019-02-19T04:22:24.451Z,83.90
2019-02-19T04:24:57.084Z,88.90
2019-02-19T04:27:28.166Z,94.50
2019-02-19T04:29:59.605Z,92.40
2019-02-19T04:32:32.128Z,93.17
2019-02-19T04:35:04.514Z,99.93
2019-02-19T04:37:35.902Z,102.80
2019-02-19T04:40:07.224Z,98.00
2019-02-19T04:42:39.040Z,93.77
2019-02-19T04:45:11.116Z,103.73
2019-02-19T04:47:44.016Z,90.03
2019-02-19T04:50:15.066Z,90.33
2019-02-19T04:52:46.989Z,89.83
2019-02-19T04:55:20.857Z,90.67
2019-02-19T04:57:52.552Z,88.67
2019-02-19T05:00:25.191Z,93.43
2019-02-19T05:02:56.338Z,148.80
2019-02-19T05:05:28.957Z,151.27
2019-02-19T05:08:01.725Z,171.57
2019-02-19T05:10:34.081Z,228.27
2019-02-19T05:13:07.082Z,301.83
2019-02-19T05:15:38.177Z,304.57
2019-02-19T05:18:09.363Z,324.67
2019-02-19T05:20:40.953Z,338.27
2019-02-19T05:23:12.947Z,307.03
2019-02-19T05:25:44.766Z,301.20
2019-02-19T05:28:17.569Z,282.07
2019-02-19T05:30:53.190Z,283.70
2019-02-19T05:33:24.304Z,284.23
2019-02-19T05:35:56.734Z,272.40
2019-02-19T05:38:30.890Z,261.83
2019-02-19T05:41:01.986Z,239.23
2019-02-19T05:43:35.051Z,227.73
2019-02-19T05:46:07.808Z,221.57
2019-02-19T05:48:39.269Z,224.90
2019-02-19T05:51:10.420Z,227.73
2019-02-19T05:53:44.810Z,204.53
2019-02-19T05:56:15.355Z,117.60
2019-02-19T05:58:48.179Z,130.40
2019-02-19T06:01:19.323Z,119.60
2019-02-19T06:04:02.719Z,135.40
2019-02-19T06:06:33.857Z,125.30
2019-02-19T06:09:07.019Z,127.03
2019-02-19T06:11:38.242Z,128.57
2019-02-19T06:14:12.069Z,129.63
2019-02-19T06:16:47.493Z,118.87
2019-02-19T06:19:18.644Z,120.63
2019-02-19T06:21:51.178Z,118.57
2019-02-19T06:24:24.024Z,138.73
2019-02-19T06:26:55.092Z,139.10
2019-02-19T06:29:27.838Z,131.90
2019-02-19T06:32:01.131Z,129.67
2019-02-19T06:34:35.796Z,115.93
2019-02-19T06:37:08.244Z,113.87
2019-02-19T06:39:39.498Z,111.77
2019-02-19T06:42:12.033Z,110.97
2019-02-19T06:44:45.833Z,108.63
2019-02-19T06:47:18.097Z,107.10
2019-02-19T06:49:50.257Z,107.20
2019-02-19T06:52:22.270Z,120.50
2019-02-19T06:54:53.682Z,138.10
2019-02-19T06:57:25.307Z,132.33
2019-02-19T06:59:57.127Z,144.00
2019-02-19T07:02:45.630Z,172.03
2019-02-19T07:05:23.055Z,166.60
2019-02-19T07:07:55.226Z,208.90
2019-02-19T07:10:26.784Z,201.10
2019-02-19T07:12:59.078Z,204.33
2019-02-19T07:15:31.290Z,220.50
2019-02-19T07:18:02.652Z,212.03
2019-02-19T07:20:35.750Z,198.40
2019-02-19T07:23:08.831Z,189.27
2019-02-19T07:25:42.050Z,196.43
2019-02-19T07:28:13.230Z,214.27
2019-02-19T07:30:44.358Z,214.30
2019-02-19T07:33:15.448Z,184.13
2019-02-19T07:35:47.198Z,177.07
2019-02-19T07:38:21.235Z,167.07
2019-02-19T07:40:53.391Z,134.03
2019-02-19T07:43:25.371Z,157.90
2019-02-19T07:45:58.955Z,146.97
2019-02-19T07:48:30.049Z,141.50
2019-02-19T07:51:01.555Z,138.50
2019-02-19T07:53:32.708Z,121.20
2019-02-19T07:56:05.426Z,138.37
2019-02-19T07:58:36.564Z,135.17
2019-02-19T08:01:07.686Z,131.43
2019-02-19T08:03:41.285Z,124.93
2019-02-19T08:06:14.204Z,121.27
2019-02-19T08:08:46.925Z,117.57
2019-02-19T08:11:19.506Z,131.60
2019-02-19T08:13:50.803Z,134.87
2019-02-19T08:16:23.228Z,159.63
2019-02-19T08:18:55.255Z,144.13
2019-02-19T08:21:26.994Z,156.03
2019-02-19T08:23:58.852Z,160.90
2019-02-19T08:26:30.207Z,173.53
2019-02-19T08:29:11.419Z,148.37
2019-02-19T08:31:34.166Z,161.87
2019-02-19T08:34:05.321Z,186.87
2019-02-19T08:36:38.512Z,194.23
2019-02-19T08:39:11.163Z,202.57
2019-02-19T08:41:44.163Z,277.10
2019-02-19T08:44:16.515Z,241.53
2019-02-19T08:46:47.994Z,281.63
2019-02-19T08:49:19.267Z,290.63
2019-02-19T08:51:56.090Z,290.93
2019-02-19T08:54:24.249Z,273.40
2019-02-19T08:56:59.539Z,293.57
2019-02-19T08:59:29.807Z,283.63
2019-02-19T09:02:00.958Z,301.27
2019-02-19T09:04:41.351Z,285.00
2019-02-19T09:07:14.252Z,309.80
2019-02-19T09:09:47.153Z,314.80
2019-02-19T09:12:20.808Z,321.20
2019-02-19T09:14:52.786Z,315.33
2019-02-19T09:17:25.302Z,301.77
2019-02-19T09:19:57.501Z,296.73
2019-02-19T09:22:29.366Z,288.33
2019-02-19T09:25:00.438Z,243.57
2019-02-19T09:27:35.485Z,273.67
2019-02-19T09:30:09.124Z,259.83
2019-02-19T09:32:40.247Z,245.17
2019-02-19T09:35:11.746Z,309.13
2019-02-19T09:37:42.953Z,283.00
2019-02-19T09:40:14.049Z,97.93
2019-02-19T09:42:45.122Z,86.87
2019-02-19T09:45:17.387Z,115.40
2019-02-19T09:47:48.502Z,95.53
2019-02-19T09:50:20.470Z,102.57
2019-02-19T09:52:59.756Z,167.90
2019-02-19T09:55:24.371Z,112.07
2019-02-19T09:57:56.399Z,99.53
2019-02-19T10:00:29.219Z,116.27
2019-02-19T10:03:01.798Z,147.53
2019-02-19T10:05:32.876Z,143.83
2019-02-19T10:08:05.444Z,169.73
2019-02-19T10:10:37.219Z,143.27
2019-02-19T10:13:08.656Z,138.43
2019-02-19T10:15:41.601Z,134.33
2019-02-19T10:18:12.770Z,122.93
2019-02-19T10:20:44.550Z,134.20
2019-02-19T10:23:16.514Z,127.27
2019-02-19T10:25:48.561Z,125.97
2019-02-19T10:28:20.887Z,127.97
2019-02-19T10:30:52.353Z,129.10
2019-02-19T10:33:25.692Z,129.83
2019-02-19T10:35:56.821Z,134.90
2019-02-19T10:38:28.000Z,129.47
2019-02-19T10:41:00.052Z,132.70
2019-02-19T10:43:33.592Z,205.77
2019-02-19T10:46:06.109Z,141.53
2019-02-19T10:48:38.284Z,133.00
2019-02-19T10:51:11.240Z,999.90
2019-02-19T10:53:42.852Z,272.90
2019-02-19T10:56:16.180Z,150.27
2019-02-19T10:58:47.344Z,144.73
2019-02-19T11:01:18.718Z,219.13
2019-02-19T11:03:51.616Z,129.70
2019-02-19T11:06:24.043Z,209.43
2019-02-19T11:08:55.265Z,110.77
2019-02-19T11:11:27.679Z,112.67
2019-02-19T11:13:59.617Z,95.53
2019-02-19T11:16:33.843Z,96.43
2019-02-19T11:19:06.372Z,96.03
2019-02-19T11:21:37.749Z,148.60
2019-02-19T11:24:09.660Z,106.10
2019-02-19T11:26:40.712Z,87.77
2019-02-19T11:29:11.820Z,78.93
2019-02-19T11:31:42.932Z,85.10
2019-02-19T11:34:14.812Z,71.40
2019-02-19T11:36:46.499Z,119.53
2019-02-19T11:39:18.138Z,63.53
2019-02-19T11:41:50.598Z,87.10
2019-02-19T11:44:23.115Z,74.70
2019-02-19T11:46:54.422Z,75.30
2019-02-19T11:49:26.623Z,98.50
2019-02-19T11:51:58.450Z,68.13
2019-02-19T11:54:30.341Z,65.60
2019-02-19T11:57:02.477Z,96.90
2019-02-19T11:59:35.407Z,87.70
2019-02-19T12:02:14.537Z,116.70
2019-02-19T12:04:47.066Z,88.97
2019-02-19T12:07:19.729Z,73.23
2019-02-19T12:09:52.264Z,88.97
2019-02-19T12:12:23.805Z,109.53
2019-02-19T12:14:55.857Z,106.17
2019-02-19T12:17:27.042Z,65.73
2019-02-19T12:19:58.171Z,202.40
2019-02-19T12:22:30.272Z,95.37
2019-02-19T12:25:02.498Z,91.53
2019-02-19T12:27:35.656Z,75.57
2019-02-19T12:30:09.144Z,102.90
2019-02-19T12:32:40.424Z,117.33
2019-02-19T12:35:12.496Z,126.10
2019-02-19T12:37:44.032Z,109.17
2019-02-19T12:40:15.318Z,117.83
2019-02-19T12:42:47.545Z,128.17
2019-02-19T12:45:20.101Z,97.03
2019-02-19T12:47:51.682Z,94.07
2019-02-19T12:50:22.797Z,85.80
2019-02-19T12:52:53.983Z,75.07
2019-02-19T12:55:26.201Z,75.80
2019-02-19T12:57:57.479Z,78.37
2019-02-19T13:00:28.619Z,69.57
2019-02-19T13:03:00.480Z,147.97
2019-02-19T13:05:32.236Z,77.03
2019-02-19T13:08:04.562Z,75.93
2019-02-19T13:10:37.721Z,76.10
2019-02-19T13:13:10.047Z,60.80
2019-02-19T13:15:42.536Z,68.90
2019-02-19T13:18:14.421Z,93.57
2019-02-19T13:20:45.588Z,59.50
2019-02-19T13:23:16.663Z,71.83
2019-02-19T13:25:49.431Z,62.43
2019-02-19T13:28:21.661Z,89.13
2019-02-19T13:30:53.423Z,55.20
2019-02-19T13:33:25.791Z,57.90
2019-02-19T13:35:56.919Z,65.77
2019-02-19T13:38:29.436Z,55.37
2019-02-19T13:41:00.799Z,78.50
2019-02-19T13:43:31.901Z,61.70
2019-02-19T13:46:03.215Z,57.17
2019-02-19T13:48:34.341Z,61.73
2019-02-19T13:51:05.545Z,49.30
2019-02-19T13:53:44.892Z,79.07
2019-02-19T13:56:16.029Z,60.93
2019-02-19T13:58:47.159Z,91.40
2019-02-19T14:01:18.338Z,85.23
2019-02-19T14:03:49.523Z,111.87
2019-02-19T14:06:20.667Z,78.90
2019-02-19T14:08:52.011Z,82.40
2019-02-19T14:11:23.161Z,68.73
2019-02-19T14:14:12.359Z,69.63
2019-02-19T14:16:56.276Z,74.07
2019-02-19T14:19:54.209Z,71.13
2019-02-19T14:22:51.614Z,62.13
2019-02-19T14:25:48.428Z,59.87
2019-02-19T14:28:37.288Z,75.77
2019-02-19T14:31:26.805Z,59.60
2019-02-19T14:34:16.655Z,87.30
2019-02-19T14:37:21.654Z,59.97
2019-02-19T14:40:10.480Z,52.83
2019-02-19T14:43:03.843Z,58.03
2019-02-19T14:45:48.160Z,73.20
2019-02-19T14:48:41.821Z,62.90
2019-02-19T14:51:24.119Z,56.33
2019-02-19T14:54:32.475Z,65.17
2019-02-19T14:57:21.389Z,49.17
2019-02-19T15:00:17.329Z,55.20
2019-02-19T15:03:07.978Z,52.93
2019-02-19T15:05:56.659Z,39.93
2019-02-19T15:08:42.531Z,55.30
2019-02-19T15:11:32.382Z,50.73
2019-02-19T15:14:15.049Z,78.57
2019-02-19T15:17:23.519Z,94.70
2019-02-19T15:20:05.768Z,70.60
2019-02-19T15:22:54.833Z,77.07
2019-02-19T15:25:56.981Z,106.97
2019-02-19T15:28:38.003Z,98.80
2019-02-19T15:31:27.700Z,141.43
2019-02-19T15:34:32.783Z,75.57
2019-02-19T15:37:28.752Z,55.63
2019-02-19T15:40:33.954Z,58.73
2019-02-19T15:43:26.888Z,73.37
2019-02-19T15:46:15.863Z,67.27
2019-02-19T15:49:09.026Z,93.20
2019-02-19T15:51:48.267Z,82.37
2019-02-19T15:54:33.620Z,96.20
2019-02-19T15:57:14.266Z,200.20
2019-02-19T16:00:02.783Z,190.73
2019-02-19T16:02:51.629Z,123.90
2019-02-19T16:05:41.546Z,246.10
2019-02-19T16:08:34.976Z,110.73
2019-02-19T16:11:15.660Z,111.80
2019-02-19T16:14:16.419Z,123.47
2019-02-19T16:17:00.904Z,174.07
2019-02-19T16:19:46.595Z,262.13
2019-02-19T16:22:29.261Z,206.70
2019-02-19T16:25:28.745Z,252.03
2019-02-19T16:28:29.706Z,298.00
2019-02-19T16:31:10.266Z,275.97
2019-02-19T16:33:51.959Z,271.47
2019-02-19T16:36:43.257Z,296.80
2019-02-19T16:39:32.301Z,303.47
2019-02-19T16:42:27.211Z,256.80
2019-02-19T16:45:17.614Z,208.13
2019-02-19T16:48:06.101Z,219.40
2019-02-19T16:51:12.424Z,209.13
2019-02-19T16:54:08.943Z,165.30
2019-02-19T16:56:49.767Z,158.73
2019-02-19T16:59:37.250Z,204.53
2019-02-19T17:02:18.238Z,166.70
2019-02-19T17:05:00.658Z,159.83
2019-02-19T17:08:05.835Z,174.03
2019-02-19T17:10:46.065Z,210.07
2019-02-19T17:13:47.199Z,210.37
2019-02-19T17:16:36.164Z,185.53
2019-02-19T17:19:29.925Z,206.10
2019-02-19T17:22:29.521Z,227.30
2019-02-19T17:25:19.493Z,247.13
2019-02-19T17:28:12.286Z,419.80
2019-02-19T17:31:14.533Z,341.23
2019-02-19T17:33:54.371Z,414.37
2019-02-19T17:36:56.634Z,424.17
2019-02-19T17:39:53.028Z,353.80
2019-02-19T17:42:37.362Z,439.67
2019-02-19T17:45:17.336Z,360.80
2019-02-19T17:48:05.656Z,351.57
2019-02-19T17:50:56.339Z,314.53
2019-02-19T17:53:47.166Z,318.60
2019-02-19T17:56:50.084Z,302.33
2019-02-19T17:59:39.196Z,313.23
2019-02-19T18:02:31.745Z,264.40
2019-02-19T18:05:28.168Z,239.17
2019-02-19T18:08:28.599Z,225.73
2019-02-19T18:11:18.315Z,277.77
2019-02-19T18:14:00.443Z,186.23
2019-02-19T18:16:44.841Z,192.73
2019-02-19T18:19:16.181Z,207.77
2019-02-19T18:21:49.776Z,244.77
2019-02-19T18:24:21.678Z,213.80
2019-02-19T18:26:53.532Z,234.00
2019-02-19T18:29:24.640Z,236.07
2019-02-19T18:31:56.075Z,256.40
2019-02-19T18:34:27.171Z,363.03
2019-02-19T18:36:58.804Z,234.53
2019-02-19T18:39:30.158Z,272.03
2019-02-19T18:42:01.751Z,252.87
2019-02-19T18:44:34.047Z,218.00
2019-02-19T18:47:06.114Z,411.97
2019-02-19T18:49:37.295Z,268.70
2019-02-19T18:52:08.435Z,249.57
2019-02-19T18:54:40.612Z,291.67
2019-02-19T18:57:12.546Z,493.07
2019-02-19T18:59:46.622Z,239.73
2019-02-19T19:02:19.421Z,300.40
2019-02-19T19:04:51.399Z,264.90
2019-02-19T19:07:23.369Z,303.03
2019-02-19T19:09:54.891Z,258.47
2019-02-19T19:12:26.209Z,242.10
2019-02-19T19:15:00.387Z,286.37
2019-02-19T19:17:32.491Z,236.53
2019-02-19T19:20:04.665Z,379.90
2019-02-19T19:22:36.723Z,223.37
2019-02-19T19:25:08.636Z,237.17
2019-02-19T19:27:40.415Z,357.70
2019-02-19T19:30:15.509Z,240.43
2019-02-19T19:32:46.736Z,302.07
2019-02-19T19:35:17.922Z,289.10
2019-02-19T19:37:52.532Z,329.77
2019-02-19T19:40:24.528Z,334.67
2019-02-19T19:42:55.636Z,259.10
2019-02-19T19:45:27.036Z,291.33
2019-02-19T19:47:58.243Z,279.50
2019-02-19T19:50:29.835Z,455.07
2019-02-19T19:53:02.361Z,304.50
2019-02-19T19:55:36.137Z,419.27
2019-02-19T19:58:07.880Z,363.00
2019-02-19T20:00:39.114Z,307.73
2019-02-19T20:03:10.216Z,269.47
2019-02-19T20:05:41.556Z,415.90
2019-02-19T20:08:12.675Z,446.30
2019-02-19T20:10:44.858Z,311.17
2019-02-19T20:13:19.434Z,640.97
2019-02-19T20:15:50.820Z,326.87
2019-02-19T20:18:23.282Z,372.43
2019-02-19T20:20:55.037Z,310.70
2019-02-19T20:23:27.257Z,266.87
2019-02-19T20:26:03.409Z,354.43
2019-02-19T20:28:36.006Z,301.33
2019-02-19T20:31:08.384Z,276.10
2019-02-19T20:33:40.285Z,460.50
2019-02-19T20:36:13.637Z,457.43
2019-02-19T20:38:46.996Z,282.07
2019-02-19T20:41:19.316Z,334.10
2019-02-19T20:43:51.305Z,322.30
2019-02-19T20:46:23.487Z,308.70
2019-02-19T20:48:56.033Z,303.57
2019-02-19T20:51:36.182Z,315.40
2019-02-19T20:54:02.123Z,227.17
2019-02-19T20:56:34.935Z,292.80
2019-02-19T20:59:06.909Z,275.93
2019-02-19T21:01:39.019Z,446.13
2019-02-19T21:04:11.466Z,230.63
2019-02-19T21:06:43.696Z,285.93
2019-02-19T21:09:15.793Z,259.37
2019-02-19T21:11:49.259Z,231.53
2019-02-19T21:14:22.382Z,215.43
2019-02-19T21:16:56.291Z,260.93
2019-02-19T21:19:28.909Z,283.23
2019-02-19T21:22:00.321Z,286.90
2019-02-19T21:24:32.645Z,289.27
2019-02-19T21:27:04.440Z,393.27
2019-02-19T21:29:37.193Z,382.40
2019-02-19T21:32:10.935Z,345.33
2019-02-19T21:34:42.160Z,409.10
2019-02-19T21:37:14.005Z,345.67
2019-02-19T21:39:46.883Z,339.37
2019-02-19T21:42:19.954Z,321.47
2019-02-19T21:44:52.672Z,379.17
2019-02-19T21:47:26.211Z,372.43
2019-02-19T21:50:01.447Z,319.30
2019-02-19T21:52:38.980Z,280.33
2019-02-19T21:55:12.119Z,284.20
2019-02-19T21:57:45.869Z,393.90
2019-02-19T22:00:19.486Z,267.50
2019-02-19T22:02:52.392Z,266.80
2019-02-19T22:05:23.688Z,272.90
2019-02-19T22:07:55.332Z,331.27
2019-02-19T22:10:30.442Z,271.00
2019-02-19T22:13:02.115Z,283.07
2019-02-19T22:15:33.509Z,274.70
2019-02-19T22:18:05.970Z,358.10
2019-02-19T22:20:54.060Z,298.57
2019-02-19T22:23:27.654Z,384.63
2019-02-19T22:26:02.290Z,314.20
2019-02-19T22:28:35.783Z,273.23
2019-02-19T22:31:09.175Z,400.73
2019-02-19T22:33:40.360Z,298.53
2019-02-19T22:36:12.290Z,324.03
2019-02-19T22:38:46.881Z,466.17
2019-02-19T22:41:22.799Z,370.53
2019-02-19T22:43:53.598Z,329.77
2019-02-19T22:46:26.770Z,351.60
2019-02-19T22:48:58.497Z,315.37
2019-02-19T22:51:30.580Z,327.27
2019-02-19T22:54:26.499Z,294.87
2019-02-19T22:56:59.571Z,361.10
2019-02-19T22:59:32.236Z,452.37
2019-02-19T23:02:09.832Z,291.50
2019-02-19T23:04:42.039Z,463.17
2019-02-19T23:07:14.675Z,410.07
2019-02-19T23:09:47.293Z,329.03
2019-02-19T23:12:19.586Z,282.97
2019-02-19T23:14:51.033Z,307.87
2019-02-19T23:17:22.806Z,464.37
2019-02-19T23:19:54.989Z,274.63
2019-02-19T23:22:26.094Z,337.17
2019-02-19T23:24:58.040Z,378.13
2019-02-19T23:27:29.897Z,386.60
2019-02-19T23:30:01.926Z,281.57
2019-02-19T23:32:34.470Z,301.50
2019-02-19T23:35:16.027Z,292.00
2019-02-19T23:37:48.346Z,281.83
2019-02-19T23:40:19.971Z,318.17
2019-02-19T23:42:51.172Z,373.53
2019-02-19T23:45:22.210Z,358.43
2019-02-19T23:47:54.845Z,295.73
2019-02-19T23:50:26.511Z,309.83
2019-02-19T23:52:57.628Z,406.37
2019-02-19T23:55:28.936Z,293.70
2019-02-19T23:58:02.134Z,413.67
